createdAt,value
2023-04-03T00:00:14.848Z,47.05
2023-04-03T00:01:14.879Z,52.53
2023-04-03T00:02:14.842Z,46.08
2023-04-03T00:03:14.857Z,46.57
2023-04-03T00:04:14.794Z,47.21
2023-04-03T00:05:14.811Z,47.37
2023-04-03T00:06:14.790Z,47.21
2023-04-03T00:07:14.827Z,44.96
2023-04-03T00:08:14.743Z,46.08
2023-04-03T00:09:14.832Z,46.89
2023-04-03T00:10:14.715Z,48.02
2023-04-03T00:11:14.748Z,45.44
2023-04-03T00:12:14.706Z,46.73
2023-04-03T00:13:14.763Z,49.95
2023-04-03T00:14:14.707Z,50.76
2023-04-03T00:15:14.676Z,50.11
2023-04-03T00:16:14.796Z,48.34
2023-04-03T00:17:14.678Z,48.02
2023-04-03T00:18:14.689Z,48.50
2023-04-03T00:19:14.665Z,45.76
2023-04-03T00:20:14.646Z,45.92
2023-04-03T00:21:14.650Z,45.44
2023-04-03T00:22:14.628Z,48.34
2023-04-03T00:23:14.646Z,50.43
2023-04-03T00:24:14.620Z,49.47
2023-04-03T00:25:14.573Z,45.60
2023-04-03T00:26:14.568Z,45.92
2023-04-03T00:27:14.583Z,46.08
2023-04-03T00:28:14.555Z,45.60
2023-04-03T00:29:14.582Z,47.37
2023-04-03T00:30:14.561Z,45.44
2023-04-03T00:31:14.557Z,45.44
2023-04-03T00:32:14.504Z,45.44
2023-04-03T00:33:14.573Z,46.57
2023-04-03T00:34:14.515Z,45.92
2023-04-03T00:35:14.523Z,48.02
2023-04-03T00:36:14.540Z,46.25
2023-04-03T00:37:14.472Z,46.73
2023-04-03T00:38:14.490Z,47.53
2023-04-03T00:39:14.484Z,53.98
2023-04-03T00:40:14.431Z,49.79
2023-04-03T00:41:14.419Z,48.34
2023-04-03T00:42:14.420Z,46.57
2023-04-03T00:43:14.428Z,46.57
2023-04-03T00:44:14.427Z,47.53
2023-04-03T00:45:14.415Z,47.05
2023-04-03T00:46:14.441Z,45.76
2023-04-03T00:47:14.361Z,45.92
2023-04-03T00:48:14.362Z,47.37
2023-04-03T00:49:14.341Z,46.57
2023-04-03T00:50:14.400Z,50.27
2023-04-03T00:51:14.371Z,45.44
2023-04-03T00:52:14.314Z,45.60
2023-04-03T00:53:14.312Z,47.53
2023-04-03T00:54:14.301Z,47.05
2023-04-03T00:55:14.314Z,48.66
2023-04-03T00:56:14.327Z,48.66
2023-04-03T00:57:14.279Z,46.08
2023-04-03T00:58:14.266Z,47.53
2023-04-03T00:59:14.259Z,45.60
2023-04-03T01:00:14.320Z,45.44
2023-04-03T01:01:14.301Z,46.08
2023-04-03T01:02:14.214Z,45.76
2023-04-03T01:03:14.307Z,46.08
2023-04-03T01:04:14.239Z,46.57
2023-04-03T01:05:14.206Z,47.70
2023-04-03T01:06:14.232Z,44.96
2023-04-03T01:07:14.195Z,45.44
2023-04-03T01:08:14.180Z,45.60
2023-04-03T01:09:14.188Z,46.25
2023-04-03T01:10:14.176Z,49.47
2023-04-03T01:11:14.162Z,47.05
2023-04-03T01:12:14.147Z,47.37
2023-04-03T01:13:14.120Z,48.82
2023-04-03T01:14:14.170Z,48.02
2023-04-03T01:15:14.124Z,46.57
2023-04-03T01:16:14.141Z,45.60
2023-04-03T01:17:14.099Z,45.76
2023-04-03T01:18:14.095Z,46.73
2023-04-03T01:19:14.065Z,45.92
2023-04-03T01:20:14.044Z,45.28
2023-04-03T01:21:14.074Z,45.92
2023-04-03T01:22:14.012Z,47.37
2023-04-03T01:23:14.033Z,47.05
2023-04-03T01:24:14.048Z,45.28
2023-04-03T01:25:14.013Z,50.60
2023-04-03T01:26:14.032Z,47.53
2023-04-03T01:27:14.004Z,47.05
2023-04-03T01:28:13.986Z,47.37
2023-04-03T01:29:13.942Z,45.92
2023-04-03T01:30:14.002Z,45.12
2023-04-03T01:31:13.952Z,46.25
2023-04-03T01:32:13.955Z,50.92
2023-04-03T01:33:13.912Z,51.88
2023-04-03T01:34:13.897Z,56.24
2023-04-03T01:35:13.939Z,51.40
2023-04-03T01:36:13.939Z,49.15
2023-04-03T01:37:13.889Z,48.98
2023-04-03T01:38:13.877Z,51.88
2023-04-03T01:39:13.843Z,46.73
2023-04-03T01:40:13.862Z,45.76
2023-04-03T01:41:13.845Z,46.41
2023-04-03T01:42:13.830Z,48.34
2023-04-03T01:43:13.851Z,50.76
2023-04-03T01:44:13.822Z,49.31
2023-04-03T01:45:13.797Z,45.76
2023-04-03T01:46:13.800Z,46.08
2023-04-03T01:47:13.802Z,46.57
2023-04-03T01:48:13.779Z,51.08
2023-04-03T01:49:13.797Z,51.08
2023-04-03T01:50:13.786Z,51.88
2023-04-03T01:51:13.743Z,58.97
2023-04-03T01:52:13.756Z,49.15
2023-04-03T01:53:13.736Z,48.98
2023-04-03T01:54:13.716Z,55.11
2023-04-03T01:55:13.747Z,54.14
2023-04-03T01:56:13.710Z,52.69
2023-04-03T01:57:13.725Z,57.20
2023-04-03T01:58:13.662Z,56.07
2023-04-03T01:59:13.671Z,57.36
2023-04-03T02:00:13.680Z,51.56
2023-04-03T02:01:13.693Z,48.02
2023-04-03T02:02:13.651Z,48.98
2023-04-03T02:03:13.647Z,48.98
2023-04-03T02:04:13.665Z,52.69
2023-04-03T02:05:13.602Z,50.11
2023-04-03T02:06:13.633Z,49.47
2023-04-03T02:07:13.601Z,52.85
2023-04-03T02:08:13.614Z,55.43
2023-04-03T02:09:13.582Z,48.98
2023-04-03T02:10:13.652Z,46.57
2023-04-03T02:11:13.548Z,47.37
2023-04-03T02:12:13.604Z,48.18
2023-04-03T02:13:13.543Z,47.05
2023-04-03T02:14:13.516Z,49.15
2023-04-03T02:15:13.518Z,48.18
2023-04-03T02:16:13.525Z,47.86
2023-04-03T02:17:13.483Z,48.66
2023-04-03T02:18:39.437Z,48.66
2023-04-03T02:19:13.450Z,46.25
2023-04-03T02:20:13.451Z,46.41
2023-04-03T02:21:13.447Z,47.86
2023-04-03T02:22:13.421Z,50.92
2023-04-03T02:23:13.441Z,45.92
2023-04-03T02:24:13.426Z,56.88
2023-04-03T02:25:13.412Z,50.27
2023-04-03T02:26:13.416Z,48.34
2023-04-03T02:27:13.401Z,46.89
2023-04-03T02:28:13.447Z,48.34
2023-04-03T02:29:13.365Z,50.76
2023-04-03T02:30:13.400Z,55.43
2023-04-03T02:31:13.376Z,56.24
2023-04-03T02:32:13.380Z,51.40
2023-04-03T02:33:13.360Z,49.79
2023-04-03T02:34:13.369Z,47.86
2023-04-03T02:35:13.303Z,50.27
2023-04-03T02:36:13.285Z,52.53
2023-04-03T02:37:13.278Z,51.08
2023-04-03T02:38:13.269Z,47.37
2023-04-03T02:39:13.284Z,47.86
2023-04-03T02:40:13.253Z,48.66
2023-04-03T02:41:13.270Z,51.40
2023-04-03T02:42:13.247Z,54.46
2023-04-03T02:43:13.224Z,54.62
2023-04-03T02:44:13.223Z,52.05
2023-04-03T02:45:13.197Z,56.07
2023-04-03T02:46:13.263Z,58.49
2023-04-03T02:47:13.166Z,53.01
2023-04-03T02:48:13.222Z,52.21
2023-04-03T02:49:13.176Z,52.05
2023-04-03T02:50:13.176Z,52.69
2023-04-03T02:51:13.154Z,53.33
2023-04-03T02:52:13.130Z,54.46
2023-04-03T02:53:13.161Z,52.05
2023-04-03T02:54:13.130Z,50.76
2023-04-03T02:55:13.121Z,53.33
2023-04-03T02:56:13.081Z,50.27
2023-04-03T02:57:13.093Z,53.50
2023-04-03T02:58:13.112Z,54.46
2023-04-03T02:59:13.207Z,55.91
2023-04-03T03:00:13.056Z,51.56
2023-04-03T03:01:13.088Z,54.62
2023-04-03T03:02:13.039Z,54.46
2023-04-03T03:03:13.048Z,50.60
2023-04-03T03:04:13.009Z,50.11
2023-04-03T03:05:13.062Z,54.95
2023-04-03T03:06:13.008Z,56.56
2023-04-03T03:07:13.037Z,52.37
2023-04-03T03:08:13.049Z,53.33
2023-04-03T03:09:12.984Z,56.24
2023-04-03T03:10:13.035Z,50.92
2023-04-03T03:11:12.952Z,49.15
2023-04-03T03:12:12.956Z,53.66
2023-04-03T03:13:12.933Z,53.98
2023-04-03T03:14:12.951Z,55.43
2023-04-03T03:15:12.897Z,55.43
2023-04-03T03:16:12.923Z,54.14
2023-04-03T03:17:12.917Z,52.37
2023-04-03T03:18:12.903Z,55.11
2023-04-03T03:19:12.895Z,54.62
2023-04-03T03:20:12.889Z,53.98
2023-04-03T03:21:12.880Z,53.01
2023-04-03T03:22:12.827Z,54.62
2023-04-03T03:23:12.819Z,58.81
2023-04-03T03:24:12.824Z,55.43
2023-04-03T03:25:12.822Z,56.56
2023-04-03T03:26:12.794Z,58.01
2023-04-03T03:27:13.816Z,56.56
2023-04-03T03:28:12.763Z,55.91
2023-04-03T03:29:12.800Z,56.56
2023-04-03T03:30:12.750Z,57.04
2023-04-03T03:31:12.741Z,58.65
2023-04-03T03:32:12.752Z,56.88
2023-04-03T03:33:12.770Z,55.75
2023-04-03T03:34:12.722Z,57.52
2023-04-03T03:35:12.718Z,57.04
2023-04-03T03:36:12.747Z,55.27
2023-04-03T03:37:12.735Z,56.24
2023-04-03T03:38:12.667Z,55.11
2023-04-03T03:39:12.681Z,55.75
2023-04-03T03:40:13.665Z,56.72
2023-04-03T03:41:12.649Z,57.36
2023-04-03T03:42:12.672Z,56.56
2023-04-03T03:43:12.652Z,56.24
2023-04-03T03:44:13.563Z,55.75
2023-04-03T03:45:12.616Z,56.88
2023-04-03T03:46:12.669Z,57.04
2023-04-03T03:47:12.572Z,57.36
2023-04-03T03:48:12.567Z,57.52
2023-04-03T03:49:12.619Z,58.17
2023-04-03T03:50:12.584Z,53.17
2023-04-03T03:51:12.561Z,52.53
2023-04-03T03:52:12.589Z,57.69
2023-04-03T03:53:12.550Z,55.43
2023-04-03T03:54:12.546Z,56.56
2023-04-03T03:55:12.549Z,58.17
2023-04-03T03:56:12.488Z,56.56
2023-04-03T03:57:12.576Z,56.40
2023-04-03T03:58:12.467Z,55.11
2023-04-03T03:59:12.497Z,56.72
2023-04-03T04:00:12.493Z,55.43
2023-04-03T04:01:12.489Z,59.94
2023-04-03T04:02:12.491Z,57.04
2023-04-03T04:03:12.614Z,55.11
2023-04-03T04:04:12.459Z,57.20
2023-04-03T04:05:12.517Z,55.91
2023-04-03T04:06:12.428Z,57.69
2023-04-03T04:07:12.396Z,56.40
2023-04-03T04:08:12.420Z,58.01
2023-04-03T04:09:12.386Z,56.56
2023-04-03T04:10:12.389Z,56.40
2023-04-03T04:11:12.361Z,56.56
2023-04-03T04:12:12.360Z,56.40
2023-04-03T04:13:12.489Z,58.17
2023-04-03T04:14:12.325Z,59.30
2023-04-03T04:15:12.319Z,58.17
2023-04-03T04:16:12.438Z,56.56
2023-04-03T04:17:12.302Z,56.88
2023-04-03T04:18:12.311Z,56.56
2023-04-03T04:19:12.276Z,57.69
2023-04-03T04:20:12.303Z,57.20
2023-04-03T04:21:12.255Z,58.01
2023-04-03T04:22:13.234Z,56.88
2023-04-03T04:23:12.225Z,55.91
2023-04-03T04:24:12.238Z,58.65
2023-04-03T04:25:12.253Z,57.04
2023-04-03T04:26:12.209Z,58.97
2023-04-03T04:27:12.192Z,57.04
2023-04-03T04:28:12.204Z,58.01
2023-04-03T04:29:12.159Z,57.69
2023-04-03T04:30:12.187Z,59.14
2023-04-03T04:31:12.208Z,57.04
2023-04-03T04:32:12.197Z,58.65
2023-04-03T04:33:12.162Z,57.04
2023-04-03T04:34:12.127Z,57.52
2023-04-03T04:35:14.052Z,59.14
2023-04-03T04:36:12.186Z,58.65
2023-04-03T04:37:12.117Z,58.17
2023-04-03T04:38:12.087Z,57.85
2023-04-03T04:39:12.066Z,59.46
2023-04-03T04:40:12.065Z,60.42
2023-04-03T04:41:12.063Z,59.30
2023-04-03T04:42:12.053Z,58.81
2023-04-03T04:43:12.067Z,59.62
2023-04-03T04:44:12.037Z,60.10
2023-04-03T04:45:12.063Z,59.78
2023-04-03T04:46:12.053Z,59.14
2023-04-03T04:47:12.010Z,59.14
2023-04-03T04:48:12.010Z,60.26
2023-04-03T04:49:11.963Z,58.49
2023-04-03T04:50:11.971Z,58.17
2023-04-03T04:51:11.956Z,57.85
2023-04-03T04:52:11.960Z,57.85
2023-04-03T04:53:11.944Z,57.36
2023-04-03T04:54:11.983Z,58.17
2023-04-03T04:55:11.928Z,58.01
2023-04-03T04:56:11.905Z,57.69
2023-04-03T04:57:11.970Z,58.65
2023-04-03T04:58:11.906Z,57.04
2023-04-03T04:59:11.878Z,58.17
2023-04-03T05:00:11.934Z,58.17
2023-04-03T05:01:11.910Z,58.65
2023-04-03T05:02:11.894Z,58.49
2023-04-03T05:03:11.836Z,61.23
2023-04-03T05:04:11.904Z,59.46
2023-04-03T05:05:11.989Z,59.14
2023-04-03T05:06:11.809Z,58.49
2023-04-03T05:07:11.806Z,58.65
2023-04-03T05:08:11.810Z,58.65
2023-04-03T05:09:11.784Z,58.81
2023-04-03T05:10:11.788Z,59.30
2023-04-03T05:11:11.810Z,60.75
2023-04-03T05:12:11.763Z,58.17
2023-04-03T05:13:11.778Z,59.14
2023-04-03T05:14:11.744Z,60.26
2023-04-03T05:15:11.759Z,62.52
2023-04-03T05:16:11.801Z,60.75
2023-04-03T05:17:11.726Z,59.14
2023-04-03T05:18:11.729Z,61.39
2023-04-03T05:19:11.707Z,61.39
2023-04-03T05:20:11.688Z,61.87
2023-04-03T05:21:11.690Z,60.91
2023-04-03T05:22:11.667Z,60.59
2023-04-03T05:23:11.685Z,61.39
2023-04-03T05:24:11.648Z,59.78
2023-04-03T05:25:11.664Z,60.75
2023-04-03T05:26:11.636Z,59.78
2023-04-03T05:27:11.638Z,59.62
2023-04-03T05:28:11.622Z,60.75
2023-04-03T05:29:11.600Z,62.52
2023-04-03T05:30:11.584Z,60.59
2023-04-03T05:31:11.596Z,58.65
2023-04-03T05:32:11.585Z,58.65
2023-04-03T05:33:11.653Z,60.42
2023-04-03T05:34:11.535Z,59.94
2023-04-03T05:35:11.548Z,58.01
2023-04-03T05:36:11.567Z,59.78
2023-04-03T05:37:11.533Z,58.17
2023-04-03T05:38:11.505Z,59.78
2023-04-03T05:39:11.509Z,58.17
2023-04-03T05:40:11.520Z,59.14
2023-04-03T05:41:11.478Z,61.55
2023-04-03T05:42:11.445Z,59.78
2023-04-03T05:43:11.452Z,60.10
2023-04-03T05:44:11.438Z,57.85
2023-04-03T05:45:11.487Z,58.33
2023-04-03T05:46:11.439Z,59.94
2023-04-03T05:47:11.444Z,59.46
2023-04-03T05:48:11.410Z,59.62
2023-04-03T05:49:12.398Z,60.26
2023-04-03T05:50:11.382Z,59.94
2023-04-03T05:51:11.375Z,57.85
2023-04-03T05:52:11.372Z,58.81
2023-04-03T05:53:11.400Z,60.42
2023-04-03T05:54:11.355Z,58.33
2023-04-03T05:55:11.344Z,59.94
2023-04-03T05:56:11.315Z,58.97
2023-04-03T05:57:11.346Z,59.46
2023-04-03T05:58:11.805Z,60.42
2023-04-03T05:59:12.364Z,60.10
2023-04-03T06:00:11.309Z,57.52
2023-04-03T06:01:11.277Z,59.78
2023-04-03T06:02:11.261Z,59.30
2023-04-03T06:03:11.472Z,59.94
2023-04-03T06:04:11.306Z,59.46
2023-04-03T06:05:11.345Z,58.17
2023-04-03T06:06:11.227Z,58.49
2023-04-03T06:07:11.222Z,57.69
2023-04-03T06:08:11.220Z,59.94
2023-04-03T06:09:11.190Z,61.55
2023-04-03T06:10:11.261Z,58.49
2023-04-03T06:11:11.189Z,60.91
2023-04-03T06:12:11.148Z,60.10
2023-04-03T06:13:11.162Z,60.75
2023-04-03T06:14:11.129Z,59.46
2023-04-03T06:15:11.109Z,62.52
2023-04-03T06:16:11.139Z,62.20
2023-04-03T06:17:11.139Z,61.23
2023-04-03T06:18:11.103Z,60.26
2023-04-03T06:19:11.090Z,59.62
2023-04-03T06:20:11.094Z,59.78
2023-04-03T06:21:11.098Z,57.69
2023-04-03T06:22:11.068Z,58.49
2023-04-03T06:23:11.058Z,59.78
2023-04-03T06:24:12.043Z,59.94
2023-04-03T06:25:11.140Z,58.65
2023-04-03T06:26:11.065Z,59.30
2023-04-03T06:27:11.100Z,58.81
2023-04-03T06:28:11.016Z,59.14
2023-04-03T06:29:11.050Z,58.01
2023-04-03T06:30:11.040Z,59.30
2023-04-03T06:31:11.000Z,60.75
2023-04-03T06:32:10.977Z,58.65
2023-04-03T06:33:11.050Z,59.78
2023-04-03T06:34:10.930Z,58.33
2023-04-03T06:35:10.972Z,59.78
2023-04-03T06:36:10.990Z,58.97
2023-04-03T06:37:10.921Z,58.49
2023-04-03T06:38:10.903Z,58.65
2023-04-03T06:39:10.892Z,58.33
2023-04-03T06:40:10.906Z,57.52
2023-04-03T06:41:10.904Z,60.75
2023-04-03T06:42:10.893Z,62.68
2023-04-03T06:43:10.877Z,60.75
2023-04-03T06:44:10.851Z,57.04
2023-04-03T06:45:10.883Z,58.01
2023-04-03T06:46:10.886Z,57.69
2023-04-03T06:47:10.850Z,56.07
2023-04-03T06:48:10.866Z,57.69
2023-04-03T06:49:10.804Z,57.04
2023-04-03T06:50:10.797Z,59.62
2023-04-03T06:51:10.802Z,60.42
2023-04-03T06:52:10.850Z,58.01
2023-04-03T06:53:10.784Z,58.33
2023-04-03T06:54:10.729Z,58.01
2023-04-03T06:55:10.781Z,58.97
2023-04-03T06:56:10.752Z,57.69
2023-04-03T06:57:10.776Z,58.49
2023-04-03T06:58:10.719Z,59.46
2023-04-03T06:59:10.721Z,60.10
2023-04-03T07:00:10.716Z,59.30
2023-04-03T07:01:10.692Z,61.23
2023-04-03T07:02:10.749Z,54.46
2023-04-03T07:03:10.661Z,56.56
2023-04-03T07:04:10.752Z,58.01
2023-04-03T07:05:10.649Z,56.56
2023-04-03T07:06:10.640Z,57.20
2023-04-03T07:07:10.664Z,56.40
2023-04-03T07:08:10.611Z,56.24
2023-04-03T07:09:10.659Z,55.75
2023-04-03T07:10:10.623Z,58.33
2023-04-03T07:11:10.607Z,57.69
2023-04-03T07:12:10.590Z,56.56
2023-04-03T07:13:10.571Z,56.40
2023-04-03T07:14:10.564Z,56.56
2023-04-03T07:15:10.567Z,57.69
2023-04-03T07:16:10.706Z,58.81
2023-04-03T07:17:10.552Z,59.46
2023-04-03T07:18:10.524Z,56.56
2023-04-03T07:19:10.523Z,58.17
2023-04-03T07:20:10.562Z,58.49
2023-04-03T07:21:10.501Z,56.24
2023-04-03T07:22:10.492Z,58.17
2023-04-03T07:23:10.489Z,57.20
2023-04-03T07:24:13.084Z,58.49
2023-04-03T07:25:12.476Z,57.69
2023-04-03T07:26:10.495Z,56.72
2023-04-03T07:27:10.479Z,59.30
2023-04-03T07:28:10.483Z,57.20
2023-04-03T07:29:10.472Z,57.20
2023-04-03T07:30:10.381Z,58.49
2023-04-03T07:31:10.468Z,60.59
2023-04-03T07:32:10.370Z,57.52
2023-04-03T07:33:10.384Z,56.40
2023-04-03T07:34:10.418Z,57.85
2023-04-03T07:35:10.332Z,58.17
2023-04-03T07:36:10.364Z,58.81
2023-04-03T07:37:10.342Z,59.94
2023-04-03T07:38:10.335Z,57.85
2023-04-03T07:39:10.343Z,59.46
2023-04-03T07:40:10.307Z,58.97
2023-04-03T07:41:10.276Z,57.85
2023-04-03T07:42:10.310Z,57.52
2023-04-03T07:43:10.261Z,58.17
2023-04-03T07:44:10.287Z,59.46
2023-04-03T07:45:10.322Z,58.17
2023-04-03T07:46:10.384Z,58.17
2023-04-03T07:47:10.249Z,58.17
2023-04-03T07:48:10.238Z,58.49
2023-04-03T07:49:10.220Z,60.59
2023-04-03T07:50:10.211Z,59.14
2023-04-03T07:51:10.186Z,60.59
2023-04-03T07:52:10.268Z,60.75
2023-04-03T07:53:10.191Z,56.40
2023-04-03T07:54:10.173Z,57.85
2023-04-03T07:55:10.155Z,58.65
2023-04-03T07:56:10.165Z,60.10
2023-04-03T07:57:10.227Z,59.14
2023-04-03T07:58:10.134Z,59.30
2023-04-03T07:59:10.116Z,59.94
2023-04-03T08:00:10.156Z,57.69
2023-04-03T08:01:10.122Z,56.07
2023-04-03T08:02:10.081Z,56.24
2023-04-03T08:03:11.192Z,58.01
2023-04-03T08:04:10.146Z,57.04
2023-04-03T08:05:10.086Z,56.56
2023-04-03T08:06:15.721Z,55.91
2023-04-03T08:07:12.112Z,59.30
2023-04-03T08:08:10.035Z,57.20
2023-04-03T08:09:10.025Z,56.56
2023-04-03T08:10:10.007Z,56.72
2023-04-03T08:11:10.026Z,57.20
2023-04-03T08:12:10.011Z,56.72
2023-04-03T08:13:09.996Z,47.70
2023-04-03T08:14:10.997Z,48.02
2023-04-03T08:15:09.992Z,56.88
2023-04-03T08:16:10.069Z,58.81
2023-04-03T08:17:09.964Z,49.79
2023-04-03T08:18:09.958Z,52.21
2023-04-03T08:19:41.839Z,55.59
2023-04-03T08:20:09.919Z,59.94
2023-04-03T08:21:09.921Z,59.78
2023-04-03T08:22:09.953Z,54.46
2023-04-03T08:23:09.953Z,55.27
2023-04-03T08:24:09.885Z,58.17
2023-04-03T08:25:09.916Z,57.52
2023-04-03T08:26:09.896Z,59.30
2023-04-03T08:27:09.888Z,56.72
2023-04-03T08:28:09.849Z,56.88
2023-04-03T08:29:09.876Z,57.04
2023-04-03T08:30:09.867Z,57.85
2023-04-03T08:31:09.845Z,58.97
2023-04-03T08:32:09.816Z,58.49
2023-04-03T08:33:09.850Z,58.81
2023-04-03T08:34:09.873Z,58.65
2023-04-03T08:35:09.767Z,56.56
2023-04-03T08:36:09.849Z,58.65
2023-04-03T08:37:09.772Z,56.56
2023-04-03T08:38:09.793Z,58.01
2023-04-03T08:39:09.739Z,56.56
2023-04-03T08:40:09.767Z,56.40
2023-04-03T08:41:09.754Z,54.95
2023-04-03T08:42:09.808Z,56.07
2023-04-03T08:43:09.750Z,54.14
2023-04-03T08:44:09.724Z,56.72
2023-04-03T08:45:09.688Z,58.17
2023-04-03T08:46:09.715Z,56.56
2023-04-03T08:47:09.677Z,52.85
2023-04-03T08:48:09.832Z,54.30
2023-04-03T08:49:09.669Z,55.91
2023-04-03T08:50:10.884Z,56.56
2023-04-03T08:51:12.672Z,56.72
2023-04-03T08:52:10.600Z,57.04
2023-04-03T08:53:09.640Z,56.88
2023-04-03T08:54:09.677Z,56.07
2023-04-03T08:55:09.590Z,56.88
2023-04-03T08:56:09.614Z,55.43
2023-04-03T08:57:09.616Z,53.50
2023-04-03T08:58:09.622Z,57.85
2023-04-03T08:59:09.604Z,58.81
2023-04-03T09:00:09.597Z,58.17
2023-04-03T09:01:09.539Z,56.56
2023-04-03T09:02:09.518Z,57.04
2023-04-03T09:03:11.259Z,57.69
2023-04-03T09:04:10.728Z,58.33
2023-04-03T09:05:09.514Z,58.17
2023-04-03T09:06:09.539Z,57.04
2023-04-03T09:07:09.500Z,55.75
2023-04-03T09:08:09.477Z,56.88
2023-04-03T09:09:09.514Z,56.24
2023-04-03T09:10:09.473Z,54.95
2023-04-03T09:11:09.451Z,56.72
2023-04-03T09:12:09.423Z,57.04
2023-04-03T09:13:09.414Z,56.72
2023-04-03T09:14:09.454Z,56.56
2023-04-03T09:15:09.371Z,57.20
2023-04-03T09:16:09.468Z,58.01
2023-04-03T09:17:09.366Z,56.56
2023-04-03T09:18:09.398Z,57.20
2023-04-03T09:19:09.390Z,55.43
2023-04-03T09:20:09.446Z,57.69
2023-04-03T09:21:09.360Z,57.04
2023-04-03T09:22:09.307Z,58.17
2023-04-03T09:23:09.330Z,58.33
2023-04-03T09:24:09.309Z,57.52
2023-04-03T09:25:09.341Z,58.97
2023-04-03T09:26:09.336Z,59.62
2023-04-03T09:27:09.406Z,58.81
2023-04-03T09:28:09.346Z,55.75
2023-04-03T09:29:09.337Z,58.17
2023-04-03T09:30:09.275Z,57.04
2023-04-03T09:31:09.272Z,57.52
2023-04-03T09:32:09.251Z,58.01
2023-04-03T09:33:09.298Z,56.88
2023-04-03T09:34:09.258Z,57.20
2023-04-03T09:35:19.056Z,57.20
2023-04-03T09:36:11.336Z,58.33
2023-04-03T09:37:09.202Z,57.20
2023-04-03T09:38:09.202Z,56.88
2023-04-03T09:39:09.162Z,56.56
2023-04-03T09:40:10.010Z,56.88
2023-04-03T09:41:09.165Z,56.40
2023-04-03T09:42:09.158Z,56.72
2023-04-03T09:43:09.187Z,57.52
2023-04-03T09:44:09.166Z,57.20
2023-04-03T09:45:09.128Z,59.78
2023-04-03T09:46:09.115Z,59.30
2023-04-03T09:47:09.107Z,58.49
2023-04-03T09:48:15.295Z,57.52
2023-04-03T09:49:11.099Z,58.17
2023-04-03T09:50:09.065Z,58.01
2023-04-03T09:51:09.042Z,56.24
2023-04-03T09:52:09.114Z,58.65
2023-04-03T09:53:09.014Z,58.97
2023-04-03T09:54:09.069Z,59.46
2023-04-03T09:55:08.986Z,57.69
2023-04-03T09:56:08.983Z,58.49
2023-04-03T09:57:09.077Z,57.52
2023-04-03T09:58:08.969Z,57.52
2023-04-03T09:59:08.985Z,58.81
2023-04-03T10:00:08.918Z,57.52
2023-04-03T10:01:09.094Z,59.30
2023-04-03T10:02:08.933Z,57.52
2023-04-03T10:03:08.942Z,58.17
2023-04-03T10:04:09.071Z,58.97
2023-04-03T10:05:10.119Z,56.88
2023-04-03T10:06:09.907Z,58.65
2023-04-03T10:07:09.956Z,56.24
2023-04-03T10:09:08.840Z,58.97
2023-04-03T10:10:08.829Z,57.69
2023-04-03T10:11:08.886Z,57.20
2023-04-03T10:12:08.855Z,60.59
2023-04-03T10:13:10.572Z,59.94
2023-04-03T10:14:09.586Z,60.10
2023-04-03T10:15:08.799Z,59.30
2023-04-03T10:16:08.867Z,59.30
2023-04-03T10:17:08.864Z,59.30
2023-04-03T10:18:21.626Z,59.14
2023-04-03T10:19:10.789Z,57.69
2023-04-03T10:20:08.811Z,57.52
2023-04-03T10:21:14.516Z,58.49
2023-04-03T10:22:10.719Z,58.81
2023-04-03T10:23:08.708Z,59.14
2023-04-03T10:24:08.711Z,59.30
2023-04-03T10:25:08.722Z,58.65
2023-04-03T10:26:08.726Z,58.33
2023-04-03T10:27:08.699Z,58.65
2023-04-03T10:28:08.716Z,58.01
2023-04-03T10:29:08.674Z,58.49
2023-04-03T10:30:08.695Z,57.69
2023-04-03T10:31:08.686Z,58.81
2023-04-03T10:32:08.738Z,59.14
2023-04-03T10:33:08.691Z,58.97
2023-04-03T10:34:08.636Z,58.33
2023-04-03T10:35:08.612Z,58.17
2023-04-03T10:36:08.622Z,59.30
2023-04-03T10:37:08.646Z,58.33
2023-04-03T10:38:08.582Z,58.65
2023-04-03T10:39:08.582Z,57.69
2023-04-03T10:40:08.708Z,58.33
2023-04-03T10:41:08.536Z,58.81
2023-04-03T10:42:15.999Z,59.30
2023-04-03T10:43:10.549Z,57.04
2023-04-03T10:44:08.537Z,58.81
2023-04-03T10:45:08.539Z,59.78
2023-04-03T10:46:08.560Z,59.46
2023-04-03T10:47:08.512Z,58.17
2023-04-03T10:48:08.531Z,57.69
2023-04-03T10:49:08.460Z,58.17
2023-04-03T10:50:08.522Z,59.14
2023-04-03T10:51:08.443Z,58.65
2023-04-03T10:52:08.420Z,59.78
2023-04-03T10:53:08.422Z,59.14
2023-04-03T10:54:08.470Z,58.97
2023-04-03T10:55:08.406Z,59.62
2023-04-03T10:56:08.540Z,57.69
2023-04-03T10:57:12.615Z,58.65
2023-04-03T10:58:09.452Z,59.14
2023-04-03T10:59:08.360Z,56.88
2023-04-03T11:00:08.342Z,57.69
2023-04-03T11:01:08.441Z,60.26
2023-04-03T11:02:08.350Z,59.14
2023-04-03T11:03:08.416Z,58.65
2023-04-03T11:04:08.485Z,56.07
2023-04-03T11:05:08.284Z,56.88
2023-04-03T11:06:08.303Z,53.66
2023-04-03T11:07:08.311Z,54.95
2023-04-03T11:08:08.316Z,54.14
2023-04-03T11:09:08.318Z,57.85
2023-04-03T11:10:08.254Z,56.56
2023-04-03T11:11:08.237Z,58.17
2023-04-03T11:12:08.294Z,56.40
2023-04-03T11:13:08.243Z,56.56
2023-04-03T11:14:08.273Z,57.20
2023-04-03T11:15:08.221Z,57.85
2023-04-03T11:16:08.215Z,57.69
2023-04-03T11:17:08.231Z,58.17
2023-04-03T11:18:09.783Z,56.24
2023-04-03T11:19:08.171Z,57.69
2023-04-03T11:20:08.173Z,58.01
2023-04-03T11:21:08.228Z,57.20
2023-04-03T11:22:08.103Z,58.81
2023-04-03T11:23:08.117Z,55.91
2023-04-03T11:24:08.136Z,57.85
2023-04-03T11:25:08.135Z,56.72
2023-04-03T11:26:08.071Z,55.27
2023-04-03T11:27:08.093Z,55.43
2023-04-03T11:28:08.189Z,56.56
2023-04-03T11:29:08.103Z,56.24
2023-04-03T11:30:08.041Z,58.65
2023-04-03T11:31:08.098Z,56.40
2023-04-03T11:32:08.056Z,55.59
2023-04-03T11:33:08.131Z,56.56
2023-04-03T11:34:08.060Z,56.88
2023-04-03T11:35:08.000Z,58.65
2023-04-03T11:36:19.061Z,58.33
2023-04-03T11:37:09.961Z,58.33
2023-04-03T11:38:08.005Z,56.56
2023-04-03T11:39:08.010Z,57.69
2023-04-03T11:40:07.957Z,57.52
2023-04-03T11:41:07.980Z,58.17
2023-04-03T11:42:13.088Z,56.72
2023-04-03T11:43:08.924Z,57.36
2023-04-03T11:44:07.990Z,58.01
2023-04-03T11:45:07.911Z,57.04
2023-04-03T11:46:07.939Z,58.01
2023-04-03T11:47:07.894Z,59.46
2023-04-03T11:48:23.260Z,58.65
2023-04-03T11:49:08.875Z,56.40
2023-04-03T11:50:07.868Z,57.04
2023-04-03T11:51:07.868Z,57.85
2023-04-03T11:52:07.890Z,60.75
2023-04-03T11:53:07.836Z,57.85
2023-04-03T11:54:07.804Z,57.85
2023-04-03T11:55:07.786Z,55.91
2023-04-03T11:56:07.796Z,56.07
2023-04-03T11:57:07.872Z,56.40
2023-04-03T11:58:07.813Z,55.11
2023-04-03T11:59:07.805Z,56.40
2023-04-03T12:00:07.837Z,57.04
2023-04-03T12:01:07.832Z,57.04
2023-04-03T12:02:07.816Z,56.56
2023-04-03T12:03:07.928Z,56.88
2023-04-03T12:04:07.819Z,57.69
2023-04-03T12:05:07.744Z,57.52
2023-04-03T12:06:07.833Z,57.20
2023-04-03T12:07:07.687Z,57.69
2023-04-03T12:08:07.689Z,55.91
2023-04-03T12:09:07.691Z,57.36
2023-04-03T12:10:08.624Z,56.56
2023-04-03T12:11:07.654Z,56.56
2023-04-03T12:12:07.677Z,57.20
2023-04-03T12:13:07.639Z,56.56
2023-04-03T12:14:07.611Z,58.17
2023-04-03T12:15:07.610Z,57.69
2023-04-03T12:16:07.689Z,56.56
2023-04-03T12:17:07.652Z,55.27
2023-04-03T12:18:07.744Z,57.69
2023-04-03T12:19:07.555Z,58.49
2023-04-03T12:20:07.532Z,57.20
2023-04-03T12:21:07.564Z,57.04
2023-04-03T12:22:07.523Z,57.04
2023-04-03T12:23:07.527Z,56.88
2023-04-03T12:24:07.553Z,55.75
2023-04-03T12:25:07.528Z,57.20
2023-04-03T12:26:07.481Z,58.01
2023-04-03T12:27:07.530Z,57.85
2023-04-03T12:28:07.498Z,59.14
2023-04-03T12:29:07.550Z,56.88
2023-04-03T12:30:07.475Z,56.24
2023-04-03T12:31:07.544Z,55.75
2023-04-03T12:32:07.525Z,56.56
2023-04-03T12:33:13.243Z,58.01
2023-04-03T12:34:09.446Z,56.56
2023-04-03T12:35:07.473Z,58.17
2023-04-03T12:36:07.449Z,59.46
2023-04-03T12:37:07.373Z,58.33
2023-04-03T12:38:07.432Z,57.20
2023-04-03T12:39:07.375Z,57.85
2023-04-03T12:40:07.372Z,59.94
2023-04-03T12:41:07.381Z,59.78
2023-04-03T12:42:07.367Z,57.20
2023-04-03T12:43:07.393Z,58.97
2023-04-03T12:44:08.347Z,57.04
2023-04-03T12:45:07.294Z,57.36
2023-04-03T12:46:07.390Z,57.04
2023-04-03T12:47:07.321Z,57.04
2023-04-03T12:48:07.429Z,57.36
2023-04-03T12:49:07.261Z,57.69
2023-04-03T12:50:07.254Z,59.78
2023-04-03T12:51:07.289Z,58.17
2023-04-03T12:52:07.247Z,58.33
2023-04-03T12:53:07.248Z,58.17